sensor_id;sensor_type;location;lat;lon;timestamp;temperature;humidity
16160;DHT22;8185;57.818;15.224;2022-07-12T00:01:55;10.40;99.90
16160;DHT22;8185;57.818;15.224;2022-07-12T00:04:22;10.40;99.90
16160;DHT22;8185;57.818;15.224;2022-07-12T00:06:50;10.40;99.90
16160;DHT22;8185;57.818;15.224;2022-07-12T00:09:17;10.40;99.90
16160;DHT22;8185;57.818;15.224;2022-07-12T00:11:45;10.30;99.90
16160;DHT22;8185;57.818;15.224;2022-07-12T00:14:13;10.20;99.90
16160;DHT22;8185;57.818;15.224;2022-07-12T00:16:40;10.30;99.90
16160;DHT22;8185;57.818;15.224;2022-07-12T00:19:09;10.30;99.90
16160;DHT22;8185;57.818;15.224;2022-07-12T00:21:36;10.30;99.90
16160;DHT22;8185;57.818;15.224;2022-07-12T00:24:04;10.30;99.90
16160;DHT22;8185;57.818;15.224;2022-07-12T00:26:31;10.30;99.90
16160;DHT22;8185;57.818;15.224;2022-07-12T00:28:58;10.20;99.90
16160;DHT22;8185;57.818;15.224;2022-07-12T00:31:29;10.10;99.90
16160;DHT22;8185;57.818;15.224;2022-07-12T00:33:56;10.10;99.90
16160;DHT22;8185;57.818;15.224;2022-07-12T00:36:25;10.10;99.90
16160;DHT22;8185;57.818;15.224;2022-07-12T00:38:52;10.20;99.90
16160;DHT22;8185;57.818;15.224;2022-07-12T00:41:19;10.10;99.90
16160;DHT22;8185;57.818;15.224;2022-07-12T00:43:46;10.10;99.90
16160;DHT22;8185;57.818;15.224;2022-07-12T00:46:15;10.00;99.90
16160;DHT22;8185;57.818;15.224;2022-07-12T00:48:43;9.90;99.90
16160;DHT22;8185;57.818;15.224;2022-07-12T00:51:10;9.90;99.90
16160;DHT22;8185;57.818;15.224;2022-07-12T00:53:39;9.80;99.90
16160;DHT22;8185;57.818;15.224;2022-07-12T00:56:07;9.80;99.90
16160;DHT22;8185;57.818;15.224;2022-07-12T00:58:35;9.70;99.90
16160;DHT22;8185;57.818;15.224;2022-07-12T01:01:02;9.80;99.90
16160;DHT22;8185;57.818;15.224;2022-07-12T01:03:29;9.80;99.90
16160;DHT22;8185;57.818;15.224;2022-07-12T01:05:57;9.80;99.90
16160;DHT22;8185;57.818;15.224;2022-07-12T01:08:24;9.80;99.90
16160;DHT22;8185;57.818;15.224;2022-07-12T01:10:54;9.80;99.90
16160;DHT22;8185;57.818;15.224;2022-07-12T01:13:22;9.70;99.90
16160;DHT22;8185;57.818;15.224;2022-07-12T01:15:50;9.60;99.90
16160;DHT22;8185;57.818;15.224;2022-07-12T01:18:18;9.60;99.90
16160;DHT22;8185;57.818;15.224;2022-07-12T01:20:46;9.50;99.90
16160;DHT22;8185;57.818;15.224;2022-07-12T01:23:15;9.50;99.90
16160;DHT22;8185;57.818;15.224;2022-07-12T01:25:42;9.50;99.90
16160;DHT22;8185;57.818;15.224;2022-07-12T01:28:10;9.40;99.90
16160;DHT22;8185;57.818;15.224;2022-07-12T01:30:37;9.40;99.90
16160;DHT22;8185;57.818;15.224;2022-07-12T01:33:05;9.40;99.90
16160;DHT22;8185;57.818;15.224;2022-07-12T01:35:33;9.30;99.90
16160;DHT22;8185;57.818;15.224;2022-07-12T01:38:02;9.30;99.90
16160;DHT22;8185;57.818;15.224;2022-07-12T01:40:30;9.20;99.90
16160;DHT22;8185;57.818;15.224;2022-07-12T01:42:58;9.20;99.90
16160;DHT22;8185;57.818;15.224;2022-07-12T01:45:26;9.20;99.90
16160;DHT22;8185;57.818;15.224;2022-07-12T01:47:54;9.20;99.90
16160;DHT22;8185;57.818;15.224;2022-07-12T01:50:25;9.20;99.90
16160;DHT22;8185;57.818;15.224;2022-07-12T01:52:52;9.10;99.90
16160;DHT22;8185;57.818;15.224;2022-07-12T01:55:20;9.10;99.90
16160;DHT22;8185;57.818;15.224;2022-07-12T01:57:50;9.10;99.90
16160;DHT22;8185;57.818;15.224;2022-07-12T02:02:55;9.10;99.90
16160;DHT22;8185;57.818;15.224;2022-07-12T02:05:23;9.10;99.90
16160;DHT22;8185;57.818;15.224;2022-07-12T02:07:52;9.10;99.90
16160;DHT22;8185;57.818;15.224;2022-07-12T02:10:19;9.10;99.90
16160;DHT22;8185;57.818;15.224;2022-07-12T02:12:46;9.10;99.90
16160;DHT22;8185;57.818;15.224;2022-07-12T02:15:15;9.10;99.90
16160;DHT22;8185;57.818;15.224;2022-07-12T02:17:45;9.20;99.90
16160;DHT22;8185;57.818;15.224;2022-07-12T02:20:13;9.30;99.90
16160;DHT22;8185;57.818;15.224;2022-07-12T02:22:40;9.30;99.90
16160;DHT22;8185;57.818;15.224;2022-07-12T02:25:08;9.40;99.90
16160;DHT22;8185;57.818;15.224;2022-07-12T02:27:35;9.50;99.90
16160;DHT22;8185;57.818;15.224;2022-07-12T02:30:06;9.50;99.90
16160;DHT22;8185;57.818;15.224;2022-07-12T02:32:35;9.40;99.90
16160;DHT22;8185;57.818;15.224;2022-07-12T02:35:02;9.40;99.90
16160;DHT22;8185;57.818;15.224;2022-07-12T02:37:30;9.30;99.90
16160;DHT22;8185;57.818;15.224;2022-07-12T02:39:57;9.30;99.90
16160;DHT22;8185;57.818;15.224;2022-07-12T02:42:38;9.20;99.90
16160;DHT22;8185;57.818;15.224;2022-07-12T02:45:06;9.20;99.90
16160;DHT22;8185;57.818;15.224;2022-07-12T02:47:38;9.20;99.90
16160;DHT22;8185;57.818;15.224;2022-07-12T02:50:06;9.20;99.90
16160;DHT22;8185;57.818;15.224;2022-07-12T02:52:34;9.20;99.90
16160;DHT22;8185;57.818;15.224;2022-07-12T02:55:01;9.10;99.90
16160;DHT22;8185;57.818;15.224;2022-07-12T02:57:29;9.10;99.90
16160;DHT22;8185;57.818;15.224;2022-07-12T02:59:56;9.20;99.90
16160;DHT22;8185;57.818;15.224;2022-07-12T03:02:23;9.30;99.90
16160;DHT22;8185;57.818;15.224;2022-07-12T03:04:52;9.20;99.90
16160;DHT22;8185;57.818;15.224;2022-07-12T03:07:19;9.30;99.90
16160;DHT22;8185;57.818;15.224;2022-07-12T03:09:46;9.30;99.90
16160;DHT22;8185;57.818;15.224;2022-07-12T03:12:14;9.40;99.90
16160;DHT22;8185;57.818;15.224;2022-07-12T03:14:41;9.40;99.90
16160;DHT22;8185;57.818;15.224;2022-07-12T03:17:08;9.50;99.90
16160;DHT22;8185;57.818;15.224;2022-07-12T03:19:36;9.60;99.90
16160;DHT22;8185;57.818;15.224;2022-07-12T03:22:04;9.80;99.90
16160;DHT22;8185;57.818;15.224;2022-07-12T03:24:32;9.90;99.90
16160;DHT22;8185;57.818;15.224;2022-07-12T03:26:59;10.00;99.90
16160;DHT22;8185;57.818;15.224;2022-07-12T03:29:26;10.20;99.90
16160;DHT22;8185;57.818;15.224;2022-07-12T03:31:53;10.30;99.90
16160;DHT22;8185;57.818;15.224;2022-07-12T03:34:21;10.30;99.90
16160;DHT22;8185;57.818;15.224;2022-07-12T03:36:48;10.40;99.90
16160;DHT22;8185;57.818;15.224;2022-07-12T03:39:17;10.40;99.90
16160;DHT22;8185;57.818;15.224;2022-07-12T03:41:44;10.50;99.90
16160;DHT22;8185;57.818;15.224;2022-07-12T03:44:11;10.50;99.90
16160;DHT22;8185;57.818;15.224;2022-07-12T03:46:38;10.60;99.90
16160;DHT22;8185;57.818;15.224;2022-07-12T03:49:05;10.60;99.90
16160;DHT22;8185;57.818;15.224;2022-07-12T03:51:33;10.70;99.90
16160;DHT22;8185;57.818;15.224;2022-07-12T03:54:00;10.90;99.90
16160;DHT22;8185;57.818;15.224;2022-07-12T03:56:30;11.00;99.90
16160;DHT22;8185;57.818;15.224;2022-07-12T03:59:14;11.20;99.90
16160;DHT22;8185;57.818;15.224;2022-07-12T04:01:43;11.20;99.90
16160;DHT22;8185;57.818;15.224;2022-07-12T04:04:10;11.30;99.90
16160;DHT22;8185;57.818;15.224;2022-07-12T04:06:38;11.30;99.90
16160;DHT22;8185;57.818;15.224;2022-07-12T04:09:05;11.30;99.90
16160;DHT22;8185;57.818;15.224;2022-07-12T04:11:34;11.40;99.90
16160;DHT22;8185;57.818;15.224;2022-07-12T04:14:01;11.60;99.90
16160;DHT22;8185;57.818;15.224;2022-07-12T04:16:29;11.70;99.90
16160;DHT22;8185;57.818;15.224;2022-07-12T04:18:56;11.80;99.90
16160;DHT22;8185;57.818;15.224;2022-07-12T04:21:24;11.80;99.90
16160;DHT22;8185;57.818;15.224;2022-07-12T04:23:51;11.90;99.90
16160;DHT22;8185;57.818;15.224;2022-07-12T04:26:19;11.90;99.90
16160;DHT22;8185;57.818;15.224;2022-07-12T04:28:48;11.90;99.90
16160;DHT22;8185;57.818;15.224;2022-07-12T04:31:15;11.90;99.90
16160;DHT22;8185;57.818;15.224;2022-07-12T04:33:44;12.00;99.90
16160;DHT22;8185;57.818;15.224;2022-07-12T04:36:11;12.20;99.90
16160;DHT22;8185;57.818;15.224;2022-07-12T04:38:41;12.30;99.90
16160;DHT22;8185;57.818;15.224;2022-07-12T04:41:09;12.50;99.90
16160;DHT22;8185;57.818;15.224;2022-07-12T04:43:36;12.70;99.90
16160;DHT22;8185;57.818;15.224;2022-07-12T04:46:12;12.80;99.90
16160;DHT22;8185;57.818;15.224;2022-07-12T04:48:39;13.00;99.90
16160;DHT22;8185;57.818;15.224;2022-07-12T04:51:06;13.20;99.90
16160;DHT22;8185;57.818;15.224;2022-07-12T04:53:33;13.40;99.90
16160;DHT22;8185;57.818;15.224;2022-07-12T04:56:01;13.60;99.90
16160;DHT22;8185;57.818;15.224;2022-07-12T04:58:28;13.70;99.90
16160;DHT22;8185;57.818;15.224;2022-07-12T05:00:55;13.90;99.90
16160;DHT22;8185;57.818;15.224;2022-07-12T05:03:24;14.10;99.90
16160;DHT22;8185;57.818;15.224;2022-07-12T05:05:54;14.20;99.90
16160;DHT22;8185;57.818;15.224;2022-07-12T05:08:21;14.40;99.90
16160;DHT22;8185;57.818;15.224;2022-07-12T05:10:49;14.50;99.90
16160;DHT22;8185;57.818;15.224;2022-07-12T05:13:16;14.60;99.90
16160;DHT22;8185;57.818;15.224;2022-07-12T05:15:44;14.80;99.90
16160;DHT22;8185;57.818;15.224;2022-07-12T05:18:11;14.80;99.90
16160;DHT22;8185;57.818;15.224;2022-07-12T05:20:40;15.00;99.90
16160;DHT22;8185;57.818;15.224;2022-07-12T05:23:07;15.10;99.90
16160;DHT22;8185;57.818;15.224;2022-07-12T05:25:37;15.20;99.90
16160;DHT22;8185;57.818;15.224;2022-07-12T05:28:05;15.30;99.90
16160;DHT22;8185;57.818;15.224;2022-07-12T05:30:32;15.40;99.90
16160;DHT22;8185;57.818;15.224;2022-07-12T05:32:59;15.50;99.90
16160;DHT22;8185;57.818;15.224;2022-07-12T05:35:27;15.70;99.90
16160;DHT22;8185;57.818;15.224;2022-07-12T05:37:55;15.80;99.90
16160;DHT22;8185;57.818;15.224;2022-07-12T05:40:23;15.90;99.90
16160;DHT22;8185;57.818;15.224;2022-07-12T05:42:50;16.00;99.90
16160;DHT22;8185;57.818;15.224;2022-07-12T05:45:17;16.10;99.90
16160;DHT22;8185;57.818;15.224;2022-07-12T05:47:44;16.20;99.90
16160;DHT22;8185;57.818;15.224;2022-07-12T05:50:12;16.30;99.90
16160;DHT22;8185;57.818;15.224;2022-07-12T05:52:39;16.40;99.90
16160;DHT22;8185;57.818;15.224;2022-07-12T05:55:25;16.50;99.90
16160;DHT22;8185;57.818;15.224;2022-07-12T05:57:52;16.70;99.90
16160;DHT22;8185;57.818;15.224;2022-07-12T06:00:20;16.80;99.90
16160;DHT22;8185;57.818;15.224;2022-07-12T06:02:48;17.10;99.90
16160;DHT22;8185;57.818;15.224;2022-07-12T06:05:15;17.20;99.90
16160;DHT22;8185;57.818;15.224;2022-07-12T06:07:42;17.20;99.90
16160;DHT22;8185;57.818;15.224;2022-07-12T06:10:10;17.40;99.90
16160;DHT22;8185;57.818;15.224;2022-07-12T06:12:38;17.40;99.90
16160;DHT22;8185;57.818;15.224;2022-07-12T06:15:06;17.50;99.90
16160;DHT22;8185;57.818;15.224;2022-07-12T06:17:33;17.60;99.90
16160;DHT22;8185;57.818;15.224;2022-07-12T06:20:01;17.70;99.90
16160;DHT22;8185;57.818;15.224;2022-07-12T06:22:29;17.80;99.90
16160;DHT22;8185;57.818;15.224;2022-07-12T06:24:56;18.00;99.90
16160;DHT22;8185;57.818;15.224;2022-07-12T06:27:23;18.20;99.90
16160;DHT22;8185;57.818;15.224;2022-07-12T06:29:52;18.40;99.90
16160;DHT22;8185;57.818;15.224;2022-07-12T06:32:20;18.60;99.90
16160;DHT22;8185;57.818;15.224;2022-07-12T06:34:47;18.70;99.90
16160;DHT22;8185;57.818;15.224;2022-07-12T06:37:14;19.00;99.90
16160;DHT22;8185;57.818;15.224;2022-07-12T06:39:41;19.00;99.90
16160;DHT22;8185;57.818;15.224;2022-07-12T06:42:09;19.10;99.90
16160;DHT22;8185;57.818;15.224;2022-07-12T06:44:36;19.10;99.90
16160;DHT22;8185;57.818;15.224;2022-07-12T06:47:05;19.20;99.90
16160;DHT22;8185;57.818;15.224;2022-07-12T06:49:33;19.20;99.90
16160;DHT22;8185;57.818;15.224;2022-07-12T06:52:00;19.20;99.90
16160;DHT22;8185;57.818;15.224;2022-07-12T06:54:27;19.20;99.90
16160;DHT22;8185;57.818;15.224;2022-07-12T06:56:54;19.30;99.90
16160;DHT22;8185;57.818;15.224;2022-07-12T06:59:24;19.30;99.90
16160;DHT22;8185;57.818;15.224;2022-07-12T07:01:51;19.50;99.90
16160;DHT22;8185;57.818;15.224;2022-07-12T07:04:23;19.70;99.90
16160;DHT22;8185;57.818;15.224;2022-07-12T07:06:50;19.80;99.90
16160;DHT22;8185;57.818;15.224;2022-07-12T07:09:18;19.80;99.90
16160;DHT22;8185;57.818;15.224;2022-07-12T07:11:45;19.90;99.90
16160;DHT22;8185;57.818;15.224;2022-07-12T07:14:12;20.10;99.90
16160;DHT22;8185;57.818;15.224;2022-07-12T07:16:40;20.20;99.90
16160;DHT22;8185;57.818;15.224;2022-07-12T07:19:07;20.40;99.90
16160;DHT22;8185;57.818;15.224;2022-07-12T07:21:36;20.60;99.90
16160;DHT22;8185;57.818;15.224;2022-07-12T07:24:03;20.60;99.30
16160;DHT22;8185;57.818;15.224;2022-07-12T07:26:31;20.30;98.80
16160;DHT22;8185;57.818;15.224;2022-07-12T07:29:00;20.20;99.90
16160;DHT22;8185;57.818;15.224;2022-07-12T07:31:45;20.20;99.90
16160;DHT22;8185;57.818;15.224;2022-07-12T07:34:12;20.40;99.80
16160;DHT22;8185;57.818;15.224;2022-07-12T07:36:41;20.80;99.90
16160;DHT22;8185;57.818;15.224;2022-07-12T07:39:08;20.70;98.70
16160;DHT22;8185;57.818;15.224;2022-07-12T07:41:38;20.70;98.10
16160;DHT22;8185;57.818;15.224;2022-07-12T07:44:05;20.90;97.90
16160;DHT22;8185;57.818;15.224;2022-07-12T07:46:32;21.00;97.50
16160;DHT22;8185;57.818;15.224;2022-07-12T07:49:00;21.00;98.50
16160;DHT22;8185;57.818;15.224;2022-07-12T07:51:27;21.20;97.70
16160;DHT22;8185;57.818;15.224;2022-07-12T07:53:56;21.30;97.50
16160;DHT22;8185;57.818;15.224;2022-07-12T07:56:23;21.40;98.40
16160;DHT22;8185;57.818;15.224;2022-07-12T07:58:50;21.50;97.00
16160;DHT22;8185;57.818;15.224;2022-07-12T08:01:19;21.40;96.30
16160;DHT22;8185;57.818;15.224;2022-07-12T08:04:06;21.30;96.60
16160;DHT22;8185;57.818;15.224;2022-07-12T08:06:34;21.40;96.40
16160;DHT22;8185;57.818;15.224;2022-07-12T08:09:03;21.50;96.60
16160;DHT22;8185;57.818;15.224;2022-07-12T08:11:30;21.60;96.40
16160;DHT22;8185;57.818;15.224;2022-07-12T08:13:57;21.40;94.80
16160;DHT22;8185;57.818;15.224;2022-07-12T08:16:25;21.20;95.20
16160;DHT22;8185;57.818;15.224;2022-07-12T08:18:52;21.30;95.10
16160;DHT22;8185;57.818;15.224;2022-07-12T08:21:20;21.40;95.70
16160;DHT22;8185;57.818;15.224;2022-07-12T08:23:47;21.30;94.90
16160;DHT22;8185;57.818;15.224;2022-07-12T08:26:16;21.30;94.00
16160;DHT22;8185;57.818;15.224;2022-07-12T08:28:43;21.40;94.30
16160;DHT22;8185;57.818;15.224;2022-07-12T08:31:10;21.20;94.80
16160;DHT22;8185;57.818;15.224;2022-07-12T08:33:40;21.20;94.80
16160;DHT22;8185;57.818;15.224;2022-07-12T08:36:08;21.50;95.20
16160;DHT22;8185;57.818;15.224;2022-07-12T08:38:36;21.90;93.80
16160;DHT22;8185;57.818;15.224;2022-07-12T08:41:04;21.60;95.10
16160;DHT22;8185;57.818;15.224;2022-07-12T08:43:36;21.50;94.10
16160;DHT22;8185;57.818;15.224;2022-07-12T08:46:04;21.70;94.20
16160;DHT22;8185;57.818;15.224;2022-07-12T08:48:32;21.90;93.20
16160;DHT22;8185;57.818;15.224;2022-07-12T08:51:04;21.70;92.50
16160;DHT22;8185;57.818;15.224;2022-07-12T08:53:32;21.70;92.80
16160;DHT22;8185;57.818;15.224;2022-07-12T08:56:00;21.80;93.30
16160;DHT22;8185;57.818;15.224;2022-07-12T08:58:27;22.30;92.10
16160;DHT22;8185;57.818;15.224;2022-07-12T09:00:56;22.50;91.50
16160;DHT22;8185;57.818;15.224;2022-07-12T09:03:23;22.60;92.40
16160;DHT22;8185;57.818;15.224;2022-07-12T09:05:52;22.00;91.40
16160;DHT22;8185;57.818;15.224;2022-07-12T09:08:25;22.20;92.60
16160;DHT22;8185;57.818;15.224;2022-07-12T09:10:55;22.60;92.20
16160;DHT22;8185;57.818;15.224;2022-07-12T09:13:48;22.90;90.50
16160;DHT22;8185;57.818;15.224;2022-07-12T09:16:20;23.30;90.10
16160;DHT22;8185;57.818;15.224;2022-07-12T09:18:48;23.30;89.00
16160;DHT22;8185;57.818;15.224;2022-07-12T09:21:23;23.50;90.40
16160;DHT22;8185;57.818;15.224;2022-07-12T09:23:52;23.50;87.70
16160;DHT22;8185;57.818;15.224;2022-07-12T09:26:19;23.50;87.70
16160;DHT22;8185;57.818;15.224;2022-07-12T09:28:49;23.30;87.70
16160;DHT22;8185;57.818;15.224;2022-07-12T09:31:18;23.50;89.70
16160;DHT22;8185;57.818;15.224;2022-07-12T09:34:02;23.80;87.30
16160;DHT22;8185;57.818;15.224;2022-07-12T09:36:57;24.10;86.60
16160;DHT22;8185;57.818;15.224;2022-07-12T09:39:24;23.80;84.20
16160;DHT22;8185;57.818;15.224;2022-07-12T09:41:54;23.60;82.60
16160;DHT22;8185;57.818;15.224;2022-07-12T09:44:24;23.90;87.30
16160;DHT22;8185;57.818;15.224;2022-07-12T09:46:54;24.30;84.20
16160;DHT22;8185;57.818;15.224;2022-07-12T09:49:23;24.40;83.30
16160;DHT22;8185;57.818;15.224;2022-07-12T09:51:53;24.00;80.20
16160;DHT22;8185;57.818;15.224;2022-07-12T09:54:25;23.30;81.00
16160;DHT22;8185;57.818;15.224;2022-07-12T09:56:54;23.50;83.90
16160;DHT22;8185;57.818;15.224;2022-07-12T09:59:23;24.10;83.00
16160;DHT22;8185;57.818;15.224;2022-07-12T10:01:54;24.20;80.00
16160;DHT22;8185;57.818;15.224;2022-07-12T10:04:29;24.30;79.40
16160;DHT22;8185;57.818;15.224;2022-07-12T10:06:57;24.60;79.10
16160;DHT22;8185;57.818;15.224;2022-07-12T10:09:25;24.70;75.80
16160;DHT22;8185;57.818;15.224;2022-07-12T10:11:54;24.70;78.40
16160;DHT22;8185;57.818;15.224;2022-07-12T10:14:22;24.30;78.60
16160;DHT22;8185;57.818;15.224;2022-07-12T10:16:51;24.50;77.60
16160;DHT22;8185;57.818;15.224;2022-07-12T10:19:28;24.80;80.30
16160;DHT22;8185;57.818;15.224;2022-07-12T10:21:57;25.40;75.80
16160;DHT22;8185;57.818;15.224;2022-07-12T10:24:49;25.80;74.40
16160;DHT22;8185;57.818;15.224;2022-07-12T10:27:31;25.60;75.30
16160;DHT22;8185;57.818;15.224;2022-07-12T10:30:15;25.50;75.50
16160;DHT22;8185;57.818;15.224;2022-07-12T10:32:44;25.80;72.20
16160;DHT22;8185;57.818;15.224;2022-07-12T10:35:15;25.80;69.00
16160;DHT22;8185;57.818;15.224;2022-07-12T10:40:49;24.80;71.80
16160;DHT22;8185;57.818;15.224;2022-07-12T10:43:19;25.30;74.40
16160;DHT22;8185;57.818;15.224;2022-07-12T10:45:48;25.60;74.90
16160;DHT22;8185;57.818;15.224;2022-07-12T10:48:24;25.90;72.50
16160;DHT22;8185;57.818;15.224;2022-07-12T10:50:56;26.40;66.80
16160;DHT22;8185;57.818;15.224;2022-07-12T10:53:25;27.10;70.30
16160;DHT22;8185;57.818;15.224;2022-07-12T10:56:13;27.90;69.00
16160;DHT22;8185;57.818;15.224;2022-07-12T10:58:43;27.80;65.30
16160;DHT22;8185;57.818;15.224;2022-07-12T11:01:12;27.90;66.70
16160;DHT22;8185;57.818;15.224;2022-07-12T11:03:42;28.90;65.50
16160;DHT22;8185;57.818;15.224;2022-07-12T11:06:14;29.40;62.90
16160;DHT22;8185;57.818;15.224;2022-07-12T11:08:56;29.10;62.50
16160;DHT22;8185;57.818;15.224;2022-07-12T11:11:26;28.30;63.00
16160;DHT22;8185;57.818;15.224;2022-07-12T11:13:53;28.80;63.70
16160;DHT22;8185;57.818;15.224;2022-07-12T11:16:22;28.60;61.70
16160;DHT22;8185;57.818;15.224;2022-07-12T11:18:50;28.30;63.80
16160;DHT22;8185;57.818;15.224;2022-07-12T11:21:20;27.90;64.10
16160;DHT22;8185;57.818;15.224;2022-07-12T11:23:47;28.50;61.70
16160;DHT22;8185;57.818;15.224;2022-07-12T11:26:16;28.70;63.10
16160;DHT22;8185;57.818;15.224;2022-07-12T11:28:44;28.70;63.80
16160;DHT22;8185;57.818;15.224;2022-07-12T11:31:14;28.60;62.10
16160;DHT22;8185;57.818;15.224;2022-07-12T11:33:43;28.20;60.60
16160;DHT22;8185;57.818;15.224;2022-07-12T11:36:12;28.20;62.30
16160;DHT22;8185;57.818;15.224;2022-07-12T11:38:42;29.10;60.50
16160;DHT22;8185;57.818;15.224;2022-07-12T11:41:10;29.20;60.10
16160;DHT22;8185;57.818;15.224;2022-07-12T11:43:38;29.20;60.70
16160;DHT22;8185;57.818;15.224;2022-07-12T11:46:10;29.80;59.90
16160;DHT22;8185;57.818;15.224;2022-07-12T11:48:38;30.10;58.60
16160;DHT22;8185;57.818;15.224;2022-07-12T11:51:06;30.00;59.00
16160;DHT22;8185;57.818;15.224;2022-07-12T11:53:35;29.30;60.80
16160;DHT22;8185;57.818;15.224;2022-07-12T11:56:06;29.10;58.70
16160;DHT22;8185;57.818;15.224;2022-07-12T11:58:34;29.50;60.20
16160;DHT22;8185;57.818;15.224;2022-07-12T12:01:04;29.10;58.30
16160;DHT22;8185;57.818;15.224;2022-07-12T12:03:43;28.40;58.40
16160;DHT22;8185;57.818;15.224;2022-07-12T12:06:11;28.00;60.00
16160;DHT22;8185;57.818;15.224;2022-07-12T12:08:38;28.30;60.90
16160;DHT22;8185;57.818;15.224;2022-07-12T12:11:07;28.30;60.90
16160;DHT22;8185;57.818;15.224;2022-07-12T12:13:34;28.30;57.90
16160;DHT22;8185;57.818;15.224;2022-07-12T12:16:03;29.00;60.00
16160;DHT22;8185;57.818;15.224;2022-07-12T12:18:32;27.90;59.00
16160;DHT22;8185;57.818;15.224;2022-07-12T12:21:02;28.20;59.80
16160;DHT22;8185;57.818;15.224;2022-07-12T12:23:29;28.60;60.30
16160;DHT22;8185;57.818;15.224;2022-07-12T12:26:12;27.60;59.90
16160;DHT22;8185;57.818;15.224;2022-07-12T12:28:44;28.00;60.50
16160;DHT22;8185;57.818;15.224;2022-07-12T12:31:12;28.50;57.80
16160;DHT22;8185;57.818;15.224;2022-07-12T12:33:41;29.20;59.80
16160;DHT22;8185;57.818;15.224;2022-07-12T12:36:20;29.20;57.50
16160;DHT22;8185;57.818;15.224;2022-07-12T12:38:49;28.80;57.60
16160;DHT22;8185;57.818;15.224;2022-07-12T12:41:18;29.40;60.00
16160;DHT22;8185;57.818;15.224;2022-07-12T12:43:52;28.90;59.20
16160;DHT22;8185;57.818;15.224;2022-07-12T12:46:43;29.10;59.50
16160;DHT22;8185;57.818;15.224;2022-07-12T12:49:10;29.10;57.40
16160;DHT22;8185;57.818;15.224;2022-07-12T12:51:51;29.30;56.50
16160;DHT22;8185;57.818;15.224;2022-07-12T12:54:31;30.20;57.30
16160;DHT22;8185;57.818;15.224;2022-07-12T12:57:00;29.30;55.60
16160;DHT22;8185;57.818;15.224;2022-07-12T12:59:28;28.40;57.30
16160;DHT22;8185;57.818;15.224;2022-07-12T13:01:55;28.00;57.10
16160;DHT22;8185;57.818;15.224;2022-07-12T13:04:22;28.40;56.50
16160;DHT22;8185;57.818;15.224;2022-07-12T13:06:54;29.40;57.00
16160;DHT22;8185;57.818;15.224;2022-07-12T13:09:22;28.80;57.90
16160;DHT22;8185;57.818;15.224;2022-07-12T13:11:49;28.00;56.60
16160;DHT22;8185;57.818;15.224;2022-07-12T13:14:18;28.50;59.70
16160;DHT22;8185;57.818;15.224;2022-07-12T13:16:45;29.50;56.80
16160;DHT22;8185;57.818;15.224;2022-07-12T13:19:12;30.40;55.10
16160;DHT22;8185;57.818;15.224;2022-07-12T13:21:39;29.70;55.80
16160;DHT22;8185;57.818;15.224;2022-07-12T13:24:07;29.50;56.20
16160;DHT22;8185;57.818;15.224;2022-07-12T13:26:34;29.70;53.80
16160;DHT22;8185;57.818;15.224;2022-07-12T13:29:03;28.40;56.40
16160;DHT22;8185;57.818;15.224;2022-07-12T13:31:31;29.00;56.20
16160;DHT22;8185;57.818;15.224;2022-07-12T13:33:59;28.50;56.20
16160;DHT22;8185;57.818;15.224;2022-07-12T13:36:26;28.20;55.30
16160;DHT22;8185;57.818;15.224;2022-07-12T13:38:54;28.50;54.40
16160;DHT22;8185;57.818;15.224;2022-07-12T13:41:41;28.90;55.70
16160;DHT22;8185;57.818;15.224;2022-07-12T13:44:09;28.50;52.90
16160;DHT22;8185;57.818;15.224;2022-07-12T13:46:37;29.30;54.90
16160;DHT22;8185;57.818;15.224;2022-07-12T13:49:04;29.50;53.90
16160;DHT22;8185;57.818;15.224;2022-07-12T13:51:32;29.70;52.80
16160;DHT22;8185;57.818;15.224;2022-07-12T13:53:59;29.40;52.70
16160;DHT22;8185;57.818;15.224;2022-07-12T13:56:26;30.20;52.50
16160;DHT22;8185;57.818;15.224;2022-07-12T13:58:54;29.20;53.70
16160;DHT22;8185;57.818;15.224;2022-07-12T14:01:21;29.30;53.20
16160;DHT22;8185;57.818;15.224;2022-07-12T14:03:50;30.20;53.90
16160;DHT22;8185;57.818;15.224;2022-07-12T14:06:17;31.10;51.30
16160;DHT22;8185;57.818;15.224;2022-07-12T14:08:45;31.30;51.90
16160;DHT22;8185;57.818;15.224;2022-07-12T14:11:12;30.80;49.90
16160;DHT22;8185;57.818;15.224;2022-07-12T14:13:39;29.70;50.70
16160;DHT22;8185;57.818;15.224;2022-07-12T14:16:07;29.30;49.70
16160;DHT22;8185;57.818;15.224;2022-07-12T14:18:34;29.60;49.30
16160;DHT22;8185;57.818;15.224;2022-07-12T14:21:03;30.30;50.30
16160;DHT22;8185;57.818;15.224;2022-07-12T14:23:30;30.40;51.40
16160;DHT22;8185;57.818;15.224;2022-07-12T14:25:57;30.30;54.10
16160;DHT22;8185;57.818;15.224;2022-07-12T14:28:25;30.60;51.10
16160;DHT22;8185;57.818;15.224;2022-07-12T14:30:52;31.10;51.40
16160;DHT22;8185;57.818;15.224;2022-07-12T14:33:19;30.50;49.90
16160;DHT22;8185;57.818;15.224;2022-07-12T14:35:46;31.00;49.60
16160;DHT22;8185;57.818;15.224;2022-07-12T14:38:15;30.80;49.30
16160;DHT22;8185;57.818;15.224;2022-07-12T14:40:42;29.70;52.70
16160;DHT22;8185;57.818;15.224;2022-07-12T14:43:12;28.80;53.60
16160;DHT22;8185;57.818;15.224;2022-07-12T14:45:40;28.90;54.30
16160;DHT22;8185;57.818;15.224;2022-07-12T14:48:08;30.40;52.50
16160;DHT22;8185;57.818;15.224;2022-07-12T14:50:37;29.90;53.40
16160;DHT22;8185;57.818;15.224;2022-07-12T14:53:05;30.20;51.90
16160;DHT22;8185;57.818;15.224;2022-07-12T14:55:34;31.40;51.70
16160;DHT22;8185;57.818;15.224;2022-07-12T14:58:02;32.10;52.20
16160;DHT22;8185;57.818;15.224;2022-07-12T15:00:29;33.30;50.50
16160;DHT22;8185;57.818;15.224;2022-07-12T15:02:56;33.70;50.30
16160;DHT22;8185;57.818;15.224;2022-07-12T15:05:25;32.30;51.60
16160;DHT22;8185;57.818;15.224;2022-07-12T15:07:52;32.70;50.10
16160;DHT22;8185;57.818;15.224;2022-07-12T15:10:20;31.40;50.40
16160;DHT22;8185;57.818;15.224;2022-07-12T15:12:49;29.90;54.30
16160;DHT22;8185;57.818;15.224;2022-07-12T15:15:17;29.60;53.90
16160;DHT22;8185;57.818;15.224;2022-07-12T15:17:44;30.20;56.00
16160;DHT22;8185;57.818;15.224;2022-07-12T15:20:11;30.80;53.50
16160;DHT22;8185;57.818;15.224;2022-07-12T15:22:39;32.50;51.50
16160;DHT22;8185;57.818;15.224;2022-07-12T15:25:07;30.40;52.20
16160;DHT22;8185;57.818;15.224;2022-07-12T15:27:34;29.80;54.80
16160;DHT22;8185;57.818;15.224;2022-07-12T15:30:04;30.20;53.30
16160;DHT22;8185;57.818;15.224;2022-07-12T15:32:31;30.10;55.50
16160;DHT22;8185;57.818;15.224;2022-07-12T15:34:58;29.90;54.30
16160;DHT22;8185;57.818;15.224;2022-07-12T15:37:26;30.80;52.00
16160;DHT22;8185;57.818;15.224;2022-07-12T15:39:53;31.80;52.20
16160;DHT22;8185;57.818;15.224;2022-07-12T15:42:20;33.70;51.90
16160;DHT22;8185;57.818;15.224;2022-07-12T15:44:48;32.50;51.90
16160;DHT22;8185;57.818;15.224;2022-07-12T15:47:16;31.70;53.30
16160;DHT22;8185;57.818;15.224;2022-07-12T15:49:44;32.20;53.50